Time;durP1;ratioP1;P1;durP2;ratioP2;P2;SDS_P1;SDS_P2;PMS_P1;PMS_P2;Temp;Humidity;BMP_temperature;BMP_pressure;BME280_temperature;BME280_humidity;BME280_pressure;Samples;Min_cycle;Max_cycle;Signal;HPM_P1;HPM_P2
2023/02/13 00:02:24;;;;;;;1.80;0.75;;;17.90;44.90;;;;;;6157116;23;20139;-81
2023/02/13 00:04:50;;;;;;;1.55;0.65;;;17.90;44.90;;;;;;6131055;23;20563;-81
2023/02/13 00:07:16;;;;;;;1.70;0.95;;;17.90;44.80;;;;;;6106725;23;20205;-81
2023/02/13 00:09:41;;;;;;;1.20;0.90;;;17.90;44.80;;;;;;6157104;23;20463;-81
2023/02/13 00:12:07;;;;;;;2.30;0.98;;;17.90;44.90;;;;;;6157535;23;20448;-82
2023/02/13 00:14:35;;;;;;;1.27;0.80;;;17.90;44.90;;;;;;6131041;23;20483;-81
2023/02/13 00:17:00;;;;;;;1.02;0.82;;;17.90;45.00;;;;;;6131025;23;20146;-81
2023/02/13 00:19:26;;;;;;;1.10;0.95;;;17.80;44.90;;;;;;6131032;23;20155;-81
2023/02/13 00:21:52;;;;;;;1.02;0.70;;;17.80;44.90;;;;;;6156947;23;20190;-81
2023/02/13 00:24:18;;;;;;;3.05;1.08;;;17.80;44.90;;;;;;6157121;23;20140;-81
2023/02/13 00:26:43;;;;;;;1.55;1.00;;;17.80;44.90;;;;;;6157314;23;20167;-81
2023/02/13 00:29:09;;;;;;;1.45;0.98;;;17.80;44.90;;;;;;6156896;23;20131;-81
2023/02/13 00:31:35;;;;;;;1.73;0.82;;;17.80;45.00;;;;;;6157021;23;20529;-81
2023/02/13 00:34:00;;;;;;;1.70;0.80;;;17.80;45.00;;;;;;6156894;23;20465;-81
2023/02/13 00:36:26;;;;;;;2.22;0.90;;;17.80;45.10;;;;;;6156848;23;20415;-81
2023/02/13 00:38:52;;;;;;;2.53;1.00;;;17.80;45.00;;;;;;6156999;23;20139;-81
2023/02/13 00:41:18;;;;;;;1.05;0.75;;;17.80;45.10;;;;;;6130960;23;20507;-81
2023/02/13 00:43:44;;;;;;;1.73;0.77;;;17.80;45.10;;;;;;6130951;23;20586;-81
2023/02/13 00:46:10;;;;;;;1.15;0.90;;;17.80;45.10;;;;;;6130821;23;20171;-81
2023/02/13 00:48:35;;;;;;;0.95;0.80;;;17.80;45.80;;;;;;6156965;23;20147;-81
2023/02/13 00:51:01;;;;;;;0.80;0.70;;;17.80;45.10;;;;;;6131148;23;20191;-80
2023/02/13 00:53:27;;;;;;;1.10;0.70;;;17.80;45.10;;;;;;6106309;23;20489;-81
2023/02/13 00:55:53;;;;;;;1.25;1.00;;;17.80;45.10;;;;;;6156715;23;20642;-81
2023/02/13 00:58:18;;;;;;;1.55;1.10;;;17.70;45.10;;;;;;6130657;23;20156;-81
2023/02/13 01:00:46;;;;;;;1.50;0.82;;;17.80;45.10;;;;;;6130700;23;20214;-81
2023/02/13 01:03:12;;;;;;;0.90;0.70;;;17.80;45.10;;;;;;6131215;23;20492;-81
2023/02/13 01:05:38;;;;;;;1.90;0.80;;;17.80;45.10;;;;;;6106105;23;20482;-81
2023/02/13 01:08:04;;;;;;;1.80;0.80;;;17.80;45.10;;;;;;6130563;23;20131;-81
2023/02/13 01:10:30;;;;;;;1.73;0.95;;;17.80;45.10;;;;;;6106152;23;20155;-81
2023/02/13 01:12:55;;;;;;;0.93;0.70;;;17.80;45.10;;;;;;6156531;23;20136;-80
2023/02/13 01:15:21;;;;;;;1.08;0.93;;;17.70;45.20;;;;;;6156797;23;20142;-81
2023/02/13 01:17:47;;;;;;;2.15;0.93;;;17.70;45.20;;;;;;6130510;23;20147;-81
2023/02/13 01:20:12;;;;;;;0.80;0.60;;;17.70;45.20;;;;;;6130518;23;20191;-81
2023/02/13 01:22:38;;;;;;;0.82;0.70;;;17.70;45.10;;;;;;6130399;23;20174;-81
2023/02/13 01:25:04;;;;;;;0.90;0.63;;;17.70;45.20;;;;;;6106154;23;20147;-81
2023/02/13 01:27:31;;;;;;;1.17;0.70;;;17.70;45.10;;;;;;6156263;23;20167;-81
2023/02/13 01:29:57;;;;;;;1.00;0.82;;;17.70;45.10;;;;;;6106725;23;20175;-81
2023/02/13 01:32:22;;;;;;;1.02;0.80;;;17.70;45.20;;;;;;6156307;23;20495;-81
2023/02/13 01:34:48;;;;;;;4.05;0.80;;;17.70;45.30;;;;;;6156249;23;20586;-83
2023/02/13 01:37:14;;;;;;;1.92;0.90;;;17.70;45.20;;;;;;6156422;23;20139;-81
2023/02/13 01:39:39;;;;;;;0.98;0.82;;;17.70;45.20;;;;;;6155976;23;20675;-81
2023/02/13 01:42:11;;;;;;;1.30;0.55;;;17.70;45.20;;;;;;6156392;23;20143;-81
2023/02/13 01:44:53;;;;;;;0.88;0.85;;;17.70;45.20;;;;;;6106928;23;20151;-81
2023/02/13 01:47:24;;;;;;;0.80;0.63;;;17.70;45.30;;;;;;6156086;23;20163;-81
2023/02/13 01:49:50;;;;;;;1.10;0.88;;;17.70;45.30;;;;;;6131105;23;20136;-80
2023/02/13 01:52:16;;;;;;;1.08;0.93;;;17.70;45.30;;;;;;6130427;23;20136;-81
2023/02/13 01:54:42;;;;;;;2.00;0.90;;;17.70;45.30;;;;;;6105627;23;20210;-82
2023/02/13 01:57:11;;;;;;;0.90;0.70;;;17.70;45.30;;;;;;6130238;23;20142;-81
2023/02/13 01:59:41;;;;;;;1.48;0.80;;;17.70;45.40;;;;;;6130638;23;20555;-81
2023/02/13 02:02:07;;;;;;;1.02;0.70;;;17.60;45.40;;;;;;6130806;23;20131;-81
2023/02/13 02:04:34;;;;;;;1.23;0.75;;;17.70;45.30;;;;;;6156130;23;20151;-81
2023/02/13 02:07:04;;;;;;;1.23;0.80;;;17.60;45.30;;;;;;6155863;23;20611;-81
2023/02/13 02:09:32;;;;;;;1.73;0.80;;;17.70;45.40;;;;;;6156607;23;20132;-81
2023/02/13 02:12:18;;;;;;;3.03;0.65;;;17.70;45.40;;;;;;6156241;23;20128;-81
2023/02/13 02:14:44;;;;;;;1.30;0.70;;;17.60;45.30;;;;;;6156381;23;20159;-81
2023/02/13 02:17:10;;;;;;;1.20;0.80;;;17.60;45.30;;;;;;6155981;23;20448;-81
2023/02/13 02:19:41;;;;;;;1.73;0.90;;;17.60;45.40;;;;;;6105495;23;20159;-81
2023/02/13 02:22:38;;;;;;;1.30;0.73;;;17.60;45.30;;;;;;6155932;23;20585;-81
2023/02/13 02:25:38;;;;;;;1.00;0.80;;;17.60;45.30;;;;;;6155978;23;20193;-81
2023/02/13 02:28:16;;;;;;;0.98;0.70;;;17.60;45.40;;;;;;6155614;23;20234;-81
2023/02/13 02:30:53;;;;;;;1.42;0.90;;;17.60;45.30;;;;;;6106661;23;20249;-81
2023/02/13 02:33:26;;;;;;;2.45;0.88;;;17.60;45.30;;;;;;6129721;23;20201;-82
2023/02/13 02:36:31;;;;;;;0.75;0.70;;;17.60;45.40;;;;;;6131930;23;20156;-80
2023/02/13 02:39:07;;;;;;;0.93;0.70;;;17.60;45.40;;;;;;6117866;23;20158;-81
2023/02/13 02:41:58;;;;;;;1.05;0.70;;;17.60;45.40;;;;;;6106687;23;20190;-80
2023/02/13 02:44:58;;;;;;;1.33;0.82;;;17.60;45.50;;;;;;6129883;23;20135;-81
2023/02/13 02:50:32;;;;;;;1.15;0.80;;;17.60;46.20;;;;;;6113676;23;20136;-82
2023/02/13 02:53:06;;;;;;;1.05;0.75;;;17.60;45.40;;;;;;6129836;23;20572;-81
2023/02/13 02:55:54;;;;;;;0.88;0.70;;;17.60;45.40;;;;;;6155915;23;20131;-81
2023/02/13 03:06:41;;;;;;;0.80;0.70;;;17.60;45.50;;;;;;6155663;23;20272;-82
2023/02/13 03:14:33;;;;;;;1.05;0.60;;;17.60;45.50;;;;;;6157709;23;20159;-81
2023/02/13 03:23:06;;;;;;;0.65;0.65;;;17.60;45.50;;;;;;6119216;23;20135;-81
2023/02/13 03:25:37;;;;;;;1.45;0.88;;;17.60;46.20;;;;;;6131558;23;20131;-81
2023/02/13 03:31:16;;;;;;;0.80;0.70;;;17.50;45.50;;;;;;6137056;23;20175;-81
2023/02/13 03:33:56;;;;;;;1.33;0.73;;;17.50;45.60;;;;;;6157470;23;20132;-82
2023/02/13 03:39:47;;;;;;;1.08;0.70;;;17.60;45.60;;;;;;6157465;23;20136;-82
2023/02/13 03:42:20;;;;;;;1.27;0.90;;;17.60;45.60;;;;;;6102097;23;20511;-81
2023/02/13 03:45:51;;;;;;;0.98;0.65;;;17.50;45.60;;;;;;6102834;23;20148;-81
2023/02/13 03:47:36;;;;;;;1.20;0.80;;;17.50;45.50;;;;;;6106610;23;20208;-81
2023/02/13 03:50:04;;;;;;;0.63;0.63;;;17.50;45.50;;;;;;6128090;23;20136;-82
2023/02/13 03:52:49;;;;;;;1.95;0.70;;;17.50;45.50;;;;;;6102751;23;20139;-81
2023/02/13 04:00:36;;;;;;;1.23;0.80;;;17.50;45.60;;;;;;6083131;23;20132;-81
2023/02/13 04:03:27;;;;;;;0.95;0.80;;;17.50;45.50;;;;;;6101790;23;20152;-81
2023/02/13 04:06:02;;;;;;;1.08;0.90;;;17.50;45.50;;;;;;6127640;23;20179;-82
2023/02/13 04:08:28;;;;;;;0.75;0.70;;;17.50;45.60;;;;;;6127676;23;20136;-81
2023/02/13 04:11:02;;;;;;;0.60;0.60;;;17.50;45.50;;;;;;6127648;23;20143;-81
2023/02/13 04:13:33;;;;;;;1.88;0.80;;;17.50;45.60;;;;;;6127541;23;20131;-81
2023/02/13 04:16:09;;;;;;;1.25;0.60;;;17.50;45.60;;;;;;6078075;23;20136;-81
2023/02/13 04:18:35;;;;;;;2.05;0.60;;;17.50;45.60;;;;;;6127427;23;20168;-81
2023/02/13 04:21:03;;;;;;;2.05;0.70;;;17.50;45.50;;;;;;6127687;23;20137;-81
2023/02/13 04:23:29;;;;;;;0.95;0.60;;;17.50;45.70;;;;;;6127395;23;20132;-81
2023/02/13 04:25:54;;;;;;;1.70;0.60;;;17.50;45.70;;;;;;6101432;23;20132;-81
2023/02/13 04:28:20;;;;;;;1.20;0.90;;;17.50;45.70;;;;;;6101901;23;20508;-81
2023/02/13 04:30:46;;;;;;;0.93;0.68;;;17.50;45.70;;;;;;6127397;23;20143;-81
2023/02/13 04:33:11;;;;;;;1.83;0.73;;;17.40;45.70;;;;;;6127609;23;20491;-81
2023/02/13 04:35:37;;;;;;;1.83;0.80;;;17.50;45.70;;;;;;6127714;23;20140;-82
2023/02/13 04:38:03;;;;;;;1.02;0.60;;;17.40;45.70;;;;;;6101397;23;20230;-81
2023/02/13 04:40:28;;;;;;;1.40;0.90;;;17.40;46.30;;;;;;6140971;23;20472;-81
2023/02/13 04:42:54;;;;;;;2.05;0.80;;;17.50;45.70;;;;;;6155390;23;20135;-82
2023/02/13 04:45:20;;;;;;;1.08;0.70;;;17.40;45.70;;;;;;6155229;23;20575;-82
2023/02/13 04:47:50;;;;;;;1.00;0.80;;;17.40;45.70;;;;;;6155202;23;20178;-81
2023/02/13 04:50:16;;;;;;;0.70;0.60;;;17.50;45.70;;;;;;6129642;23;20147;-82
2023/02/13 04:52:42;;;;;;;0.50;0.50;;;17.50;45.70;;;;;;6129336;23;20132;-81
2023/02/13 04:55:07;;;;;;;0.70;0.60;;;17.50;46.30;;;;;;6155226;23;20447;-81
2023/02/13 04:57:33;;;;;;;0.80;0.50;;;17.40;45.60;;;;;;6129279;23;20571;-82
2023/02/13 04:59:59;;;;;;;0.80;0.68;;;17.50;45.60;;;;;;6129404;23;20231;-81
2023/02/13 05:02:24;;;;;;;0.80;0.70;;;17.40;45.70;;;;;;6155548;23;20525;-81
2023/02/13 05:04:50;;;;;;;1.13;0.73;;;17.50;45.80;;;;;;6155175;23;20214;-81
2023/02/13 05:07:16;;;;;;;1.27;0.75;;;17.40;45.70;;;;;;6155159;23;20167;-81
2023/02/13 05:09:41;;;;;;;1.25;0.77;;;17.50;45.80;;;;;;6155229;23;20180;-81
2023/02/13 05:12:07;;;;;;;1.40;0.90;;;17.40;45.70;;;;;;6104929;23;20152;-81
2023/02/13 05:14:33;;;;;;;2.00;0.95;;;17.40;45.70;;;;;;6129189;23;20158;-81
2023/02/13 05:16:58;;;;;;;1.25;0.90;;;17.40;45.70;;;;;;6155115;23;20143;-81
2023/02/13 05:19:24;;;;;;;0.95;0.70;;;17.40;45.70;;;;;;6155147;23;20135;-81
2023/02/13 05:24:32;;;;;;;0.90;0.70;;;17.40;45.70;;;;;;6155110;23;20166;-82
2023/02/13 05:26:58;;;;;;;0.73;0.70;;;17.50;45.80;;;;;;6129305;23;20163;-81
2023/02/13 05:29:23;;;;;;;1.30;0.90;;;17.40;45.80;;;;;;6128604;23;20589;-81
2023/02/13 05:31:51;;;;;;;0.70;0.70;;;17.40;45.70;;;;;;6129100;23;20629;-81
2023/02/13 05:34:17;;;;;;;1.25;0.85;;;17.40;45.70;;;;;;6129752;23;20132;-81
2023/02/13 05:36:43;;;;;;;1.02;0.70;;;17.40;45.70;;;;;;6155128;23;20194;-81
2023/02/13 05:39:09;;;;;;;1.85;0.70;;;17.40;45.70;;;;;;6105017;23;20515;-81
2023/02/13 05:41:34;;;;;;;1.50;0.77;;;17.40;45.80;;;;;;6102732;23;1261200;-81
2023/02/13 05:44:00;;;;;;;1.10;0.70;;;17.40;45.80;;;;;;6130192;23;20575;-80
2023/02/13 05:46:26;;;;;;;1.38;0.70;;;17.40;45.80;;;;;;6081805;23;20573;-80
2023/02/13 05:48:51;;;;;;;1.38;0.85;;;17.40;45.80;;;;;;6130278;23;20158;-81
2023/02/13 05:51:18;;;;;;;1.00;0.70;;;17.40;45.80;;;;;;6130243;23;20136;-81
2023/02/13 05:53:44;;;;;;;1.52;0.80;;;17.40;45.80;;;;;;6156853;23;20132;-81
2023/02/13 05:56:09;;;;;;;1.25;0.68;;;17.30;45.70;;;;;;6130182;23;20146;-81
2023/02/13 05:58:35;;;;;;;0.98;0.73;;;17.40;45.90;;;;;;6156201;23;20495;-81
2023/02/13 06:01:01;;;;;;;1.38;0.70;;;17.40;45.90;;;;;;6130098;23;20214;-81
2023/02/13 06:03:28;;;;;;;1.17;0.82;;;17.40;45.70;;;;;;6130336;23;20194;-81
2023/02/13 06:05:54;;;;;;;0.70;0.52;;;17.40;45.70;;;;;;6130097;23;20150;-81
2023/02/13 06:08:20;;;;;;;1.80;0.65;;;17.50;45.80;;;;;;6156257;23;20175;-81
2023/02/13 06:10:47;;;;;;;1.23;0.50;;;17.40;45.70;;;;;;6130191;23;20166;-82
2023/02/13 06:13:12;;;;;;;1.10;0.80;;;17.40;45.80;;;;;;6105645;23;20142;-82
2023/02/13 06:15:38;;;;;;;0.73;0.60;;;17.40;45.70;;;;;;6156325;23;20943;-81
2023/02/13 06:18:04;;;;;;;1.02;0.80;;;17.50;45.80;;;;;;6130024;23;20144;-81
2023/02/13 06:20:30;;;;;;;2.15;0.80;;;17.40;45.70;;;;;;6156244;23;20210;-81
2023/02/13 06:22:55;;;;;;;1.13;0.85;;;17.40;45.70;;;;;;6156030;23;20143;-81
2023/02/13 06:25:21;;;;;;;0.60;0.60;;;17.40;45.70;;;;;;6130443;23;20147;-81
2023/02/13 06:27:47;;;;;;;1.30;0.80;;;17.50;45.70;;;;;;6129777;23;20177;-81
2023/02/13 06:30:13;;;;;;;1.40;0.60;;;17.50;45.70;;;;;;6129924;23;20160;-81
2023/02/13 06:32:39;;;;;;;1.05;0.90;;;17.50;45.70;;;;;;6130072;23;20163;-81
2023/02/13 06:35:05;;;;;;;0.77;0.55;;;17.40;45.60;;;;;;6155821;23;20567;-81
2023/02/13 06:37:30;;;;;;;0.98;0.65;;;17.50;45.70;;;;;;6129952;23;20136;-81
2023/02/13 06:39:56;;;;;;;0.85;0.70;;;17.50;45.70;;;;;;6129386;23;20197;-82
2023/02/13 06:42:22;;;;;;;1.42;0.70;;;17.50;45.70;;;;;;6129789;23;20140;-83
2023/02/13 06:44:47;;;;;;;0.70;0.60;;;17.40;45.70;;;;;;6130203;23;20136;-82
2023/02/13 06:47:13;;;;;;;0.73;0.70;;;17.40;45.60;;;;;;6156032;23;20199;-82
2023/02/13 06:49:41;;;;;;;0.70;0.52;;;17.40;45.70;;;;;;6156359;23;20634;-82
2023/02/13 06:52:07;;;;;;;2.78;0.77;;;17.50;45.70;;;;;;6104268;23;20187;-81
2023/02/13 06:54:33;;;;;;;1.10;0.80;;;17.50;45.80;;;;;;6130198;23;20147;-81
2023/02/13 06:56:58;;;;;;;0.77;0.60;;;17.50;45.80;;;;;;6155925;23;20140;-82
2023/02/13 06:59:24;;;;;;;0.82;0.70;;;17.50;45.70;;;;;;6129554;23;20163;-82
2023/02/13 07:01:50;;;;;;;0.93;0.73;;;17.40;45.60;;;;;;6155803;23;20135;-81
2023/02/13 07:04:15;;;;;;;1.02;0.77;;;17.50;45.70;;;;;;6130419;23;20144;-81
2023/02/13 07:06:41;;;;;;;0.82;0.70;;;17.50;45.60;;;;;;6155809;23;20234;-81
2023/02/13 07:09:07;;;;;;;0.80;0.70;;;17.40;45.60;;;;;;6129459;23;20219;-82
2023/02/13 07:11:32;;;;;;;1.00;0.77;;;17.40;45.70;;;;;;6155659;23;20131;-82
2023/02/13 07:13:58;;;;;;;1.17;0.80;;;17.50;45.70;;;;;;6129859;23;20163;-81
2023/02/13 07:16:24;;;;;;;0.80;0.70;;;17.50;45.70;;;;;;6129822;23;20470;-81
2023/02/13 07:18:50;;;;;;;1.00;0.85;;;17.50;45.70;;;;;;6156248;23;20468;-83
2023/02/13 07:21:16;;;;;;;0.95;0.70;;;17.50;45.70;;;;;;6157388;23;20150;-82
2023/02/13 07:23:47;;;;;;;1.48;0.73;;;17.40;45.70;;;;;;6155551;23;20139;-81
2023/02/13 07:26:15;;;;;;;0.88;0.70;;;17.50;45.70;;;;;;6155499;23;20551;-80
2023/02/13 07:28:41;;;;;;;1.40;0.60;;;17.50;45.70;;;;;;6129837;23;20175;-81
2023/02/13 07:31:06;;;;;;;1.10;0.77;;;17.50;45.60;;;;;;6080822;23;20171;-80
2023/02/13 07:33:33;;;;;;;0.73;0.60;;;17.50;45.50;;;;;;6155701;23;20137;-81
2023/02/13 07:36:02;;;;;;;2.08;0.80;;;17.60;45.40;;;;;;6130591;23;20175;-81
2023/02/13 07:38:29;;;;;;;1.00;0.63;;;17.70;45.20;;;;;;6107503;23;20198;-81
2023/02/13 07:40:59;;;;;;;0.82;0.80;;;17.60;45.20;;;;;;6131143;23;20627;-82
2023/02/13 07:43:25;;;;;;;4.50;0.90;;;17.70;45.10;;;;;;6130498;23;20132;-81
2023/02/13 07:45:54;;;;;;;5.07;0.82;;;17.80;45.00;;;;;;6105425;23;20147;-81
2023/02/13 07:48:21;;;;;;;2.53;0.70;;;17.80;44.90;;;;;;6156083;23;20135;-82
2023/02/13 07:50:47;;;;;;;5.47;1.05;;;17.80;44.90;;;;;;6156475;23;20147;-81
2023/02/13 07:53:13;;;;;;;5.88;1.20;;;17.90;44.80;;;;;;6132126;23;20135;-81
2023/02/13 07:55:38;;;;;;;11.90;1.10;;;17.90;44.90;;;;;;6108979;23;20163;-82
2023/02/13 07:58:04;;;;;;;11.00;1.27;;;18.00;44.90;;;;;;6130726;23;20668;-82
2023/02/13 08:00:30;;;;;;;8.02;1.10;;;18.00;44.70;;;;;;6132205;23;20567;-82
2023/02/13 08:02:59;;;;;;;5.93;0.98;;;18.10;44.60;;;;;;6110269;23;20166;-81
2023/02/13 08:05:24;;;;;;;12.65;1.13;;;18.10;44.70;;;;;;6158960;23;20514;-81
2023/02/13 08:07:50;;;;;;;11.18;1.25;;;18.10;44.80;;;;;;6158542;23;20211;-80
2023/02/13 08:13:11;;;;;;;4.05;0.90;;;18.10;44.90;;;;;;6116132;23;20139;-81
2023/02/13 08:15:36;;;;;;;5.60;0.90;;;18.10;44.90;;;;;;6108138;23;20502;-82
2023/02/13 08:18:05;;;;;;;3.70;0.65;;;18.10;44.80;;;;;;6132253;23;20135;-81
2023/02/13 08:20:31;;;;;;;3.40;0.70;;;18.10;44.80;;;;;;6131583;23;20262;-80
2023/02/13 08:23:06;;;;;;;6.05;1.15;;;18.10;44.70;;;;;;6158674;23;20167;-81
2023/02/13 08:25:32;;;;;;;5.88;0.90;;;18.20;44.60;;;;;;6108363;23;20256;-81
2023/02/13 08:28:01;;;;;;;3.88;0.90;;;18.20;44.70;;;;;;6132037;23;20163;-82
2023/02/13 08:30:27;;;;;;;6.18;0.82;;;18.30;44.60;;;;;;6130889;23;20167;-81
2023/02/13 08:32:53;;;;;;;3.75;0.73;;;18.20;44.60;;;;;;6132854;23;20128;-82
2023/02/13 08:35:19;;;;;;;6.43;1.15;;;18.30;44.60;;;;;;6132360;23;20136;-81
2023/02/13 08:37:45;;;;;;;5.05;1.10;;;18.30;44.50;;;;;;6133599;23;20136;-81
2023/02/13 08:40:14;;;;;;;6.32;1.35;;;18.30;44.60;;;;;;6084278;23;20198;-82
2023/02/13 08:42:40;;;;;;;3.53;1.00;;;18.30;44.50;;;;;;6158058;23;20529;-81
2023/02/13 08:45:09;;;;;;;7.50;1.40;;;18.40;44.50;;;;;;6132214;23;20132;-82
2023/02/13 08:47:34;;;;;;;5.93;1.20;;;18.50;44.60;;;;;;6132451;23;20490;-81
2023/02/13 08:50:00;;;;;;;6.55;1.00;;;18.50;44.60;;;;;;6131700;23;20131;-81
2023/02/13 08:52:31;;;;;;;8.35;1.20;;;18.40;44.80;;;;;;6132163;23;20136;-81
2023/02/13 08:54:57;;;;;;;6.80;1.00;;;18.40;44.90;;;;;;6108129;23;20602;-82
2023/02/13 08:57:22;;;;;;;5.22;1.08;;;18.50;44.80;;;;;;6086041;23;20159;-81
2023/02/13 08:59:49;;;;;;;4.80;1.00;;;18.40;44.80;;;;;;6108493;23;20148;-81
2023/02/13 09:02:23;;;;;;;5.68;0.90;;;18.40;44.90;;;;;;6131561;23;20186;-81
2023/02/13 09:04:49;;;;;;;7.00;0.90;;;18.40;44.90;;;;;;6101683;23;20151;-82
2023/02/13 09:07:19;;;;;;;6.63;1.05;;;18.40;45.10;;;;;;6101552;23;20198;-81
2023/02/13 09:09:44;;;;;;;8.38;1.00;;;18.40;45.10;;;;;;6079417;23;20252;-81
2023/02/13 09:12:10;;;;;;;13.55;1.60;;;18.40;44.90;;;;;;6102425;23;20136;-81
2023/02/13 09:14:38;;;;;;;5.10;0.70;;;18.50;44.90;;;;;;6103338;23;20239;-81
2023/02/13 09:17:04;;;;;;;8.13;1.23;;;18.50;44.80;;;;;;6102378;23;20156;-83
2023/02/13 09:20:07;;;;;;;;;;;;;;;;;;;;;
2023/02/13 09:22:36;;;;;;;6.53;1.33;;;18.60;44.80;;;;;;6066518;23;20164;-81
2023/02/13 09:25:03;;;;;;;7.40;1.10;;;18.60;44.60;;;;;;6048037;23;20197;-82
2023/02/13 09:27:29;;;;;;;4.25;1.30;;;18.70;44.80;;;;;;6095100;23;20232;-81
2023/02/13 09:29:55;;;;;;;4.90;1.13;;;18.60;45.10;;;;;;6047366;23;20187;-81
2023/02/13 09:32:21;;;;;;;10.80;1.30;;;18.70;45.00;;;;;;6072393;23;20188;-82
2023/02/13 09:35:05;;;;;;;11.20;1.45;;;18.70;45.00;;;;;;6047767;23;20208;-81
2023/02/13 09:37:31;;;;;;;12.25;1.30;;;18.60;45.30;;;;;;6075723;23;20148;-83
2023/02/13 09:39:57;;;;;;;5.28;1.15;;;18.60;45.40;;;;;;6065879;23;20265;-81
2023/02/13 09:42:25;;;;;;;8.82;1.80;;;18.60;45.50;;;;;;6018563;23;20157;-82
2023/02/13 09:44:52;;;;;;;6.22;1.05;;;18.70;45.60;;;;;;5995951;23;20181;-83
2023/02/13 09:47:28;;;;;;;10.43;1.27;;;18.70;45.50;;;;;;6018813;23;20185;-81
2023/02/13 09:50:00;;;;;;;7.10;1.20;;;18.70;45.70;;;;;;5984940;23;20486;-81
2023/02/13 09:52:27;;;;;;;10.63;1.10;;;18.70;45.60;;;;;;6001534;23;20157;-81
2023/02/13 09:54:55;;;;;;;6.63;1.00;;;18.70;45.60;;;;;;6018334;23;20153;-81
2023/02/13 09:57:28;;;;;;;3.90;0.85;;;18.70;45.70;;;;;;5984663;23;20257;-83
2023/02/13 10:00:27;;;;;;;14.73;1.30;;;18.70;45.60;;;;;;6009221;23;20257;-81
2023/02/13 10:03:20;;;;;;;4.32;1.00;;;18.80;45.70;;;;;;5956659;24;20604;-83
2023/02/13 10:05:57;;;;;;;5.55;0.80;;;18.70;45.70;;;;;;5981559;24;20242;-80
2023/02/13 10:08:33;;;;;;;6.07;0.85;;;18.70;45.90;;;;;;5959621;24;20162;-83
2023/02/13 10:11:08;;;;;;;4.47;1.20;;;18.70;46.00;;;;;;5979891;24;20211;-81
2023/02/13 10:14:07;;;;;;;5.45;1.02;;;18.70;46.00;;;;;;5957796;24;20139;-83
2023/02/13 10:20:06;;;;;;;;;;;;;;;;;;;;;
2023/02/13 10:22:36;;;;;;;4.15;0.95;;;18.70;46.10;;;;;;5881684;24;20240;-81
2023/02/13 10:25:26;;;;;;;6.63;0.98;;;18.70;46.10;;;;;;5896842;24;20165;-82
2023/02/13 10:27:54;;;;;;;4.82;1.05;;;18.70;46.00;;;;;;5842818;24;20742;-81
2023/02/13 10:30:23;;;;;;;9.23;1.13;;;18.70;46.00;;;;;;5843201;24;20161;-82
2023/02/13 10:33:33;;;;;;;3.88;0.93;;;18.60;45.80;;;;;;5843425;24;20315;-81
2023/02/13 10:36:10;;;;;;;5.85;0.60;;;18.70;45.90;;;;;;5843025;24;20163;-81
2023/02/13 10:38:50;;;;;;;4.05;0.90;;;18.70;46.10;;;;;;5865734;24;20159;-81
2023/02/13 10:41:47;;;;;;;7.03;0.95;;;18.60;46.20;;;;;;5912700;24;20346;-82
2023/02/13 10:44:44;;;;;;;5.18;0.70;;;18.60;46.20;;;;;;5902408;24;20593;-81
2023/02/13 10:47:44;;;;;;;3.55;0.70;;;18.50;46.30;;;;;;5884906;24;20685;-81
2023/02/13 10:50:25;;;;;;;4.28;0.75;;;18.60;46.40;;;;;;5925424;24;20580;-81
2023/02/13 10:53:10;;;;;;;4.88;0.70;;;18.60;46.30;;;;;;5858417;24;20156;-83
2023/02/13 10:56:03;;;;;;;2.10;0.68;;;18.60;46.30;;;;;;5911296;23;20194;-81
2023/02/13 10:58:51;;;;;;;4.30;0.93;;;18.60;46.20;;;;;;6076095;23;20155;-81
2023/02/13 11:01:46;;;;;;;4.70;0.77;;;18.60;46.20;;;;;;6126532;23;20635;-80
2023/02/13 11:04:14;;;;;;;3.33;0.77;;;18.70;46.10;;;;;;6106548;23;20132;-81
2023/02/13 11:06:42;;;;;;;3.45;0.77;;;18.70;46.00;;;;;;6126230;23;20171;-81
2023/02/13 11:09:08;;;;;;;1.10;0.50;;;18.70;46.00;;;;;;6100867;23;20167;-80
2023/02/13 11:11:35;;;;;;;1.20;0.77;;;18.70;45.80;;;;;;6125989;23;20132;-81
2023/02/13 11:14:18;;;;;;;5.60;0.82;;;18.80;45.60;;;;;;6100355;23;20616;-80
2023/02/13 11:16:56;;;;;;;2.63;0.77;;;18.80;45.70;;;;;;6125916;23;20568;-80
2023/02/13 11:19:50;;;;;;;2.67;0.63;;;18.70;45.80;;;;;;6126247;23;20144;-80
2023/02/13 11:22:27;;;;;;;1.52;0.57;;;18.70;45.90;;;;;;6100408;23;20164;-80
2023/02/13 11:24:55;;;;;;;2.80;0.60;;;18.70;45.70;;;;;;6099968;23;20144;-81
2023/02/13 11:27:26;;;;;;;4.57;0.80;;;18.70;45.70;;;;;;6100006;23;20596;-82
2023/02/13 11:29:55;;;;;;;1.52;0.60;;;18.80;45.50;;;;;;6102092;23;20132;-81
2023/02/13 11:32:22;;;;;;;1.63;0.52;;;18.80;45.50;;;;;;6102112;23;20128;-81
2023/02/13 11:34:50;;;;;;;1.38;0.60;;;18.70;45.60;;;;;;6078452;23;20171;-81
2023/02/13 11:37:19;;;;;;;1.52;0.50;;;18.70;45.80;;;;;;6102525;23;20248;-82
2023/02/13 11:39:49;;;;;;;3.00;0.60;;;18.70;45.70;;;;;;6084067;23;20198;-81
2023/02/13 11:42:16;;;;;;;2.10;0.60;;;18.60;45.80;;;;;;6043994;23;20197;-82
2023/02/13 11:44:43;;;;;;;1.55;0.60;;;18.60;45.70;;;;;;6043674;23;20286;-81
2023/02/13 11:47:08;;;;;;;0.65;0.43;;;18.70;45.40;;;;;;6043604;23;20207;-80
2023/02/13 11:49:36;;;;;;;4.10;0.50;;;18.80;45.30;;;;;;6044299;23;20633;-80
2023/02/13 11:52:03;;;;;;;1.55;0.90;;;18.70;45.20;;;;;;6068634;23;20157;-81
2023/02/13 11:54:32;;;;;;;4.50;0.70;;;18.80;45.30;;;;;;6044693;23;20149;-80
2023/02/13 11:57:00;;;;;;;3.17;0.57;;;18.80;45.20;;;;;;6044196;23;20244;-81
2023/02/13 11:59:30;;;;;;;3.22;0.65;;;18.80;45.10;;;;;;6068213;23;20478;-80
2023/02/13 12:02:15;;;;;;;5.28;0.70;;;18.80;45.10;;;;;;6068211;23;20517;-80
2023/02/13 12:04:41;;;;;;;1.45;0.60;;;18.80;45.00;;;;;;6067363;23;20156;-79
2023/02/13 12:07:20;;;;;;;0.63;0.50;;;18.80;44.80;;;;;;6067254;23;20493;-79
2023/02/13 12:10:21;;;;;;;1.45;0.40;;;18.80;44.80;;;;;;6068356;23;20220;-80
2023/02/13 12:13:06;;;;;;;1.42;0.40;;;18.80;44.90;;;;;;6094557;23;20159;-80
2023/02/13 12:15:34;;;;;;;1.58;0.57;;;18.80;44.80;;;;;;6109534;23;20147;-80
2023/02/13 12:18:18;;;;;;;1.42;0.70;;;18.80;44.90;;;;;;6160865;23;20136;-80
2023/02/13 12:21:04;;;;;;;0.82;0.50;;;18.80;44.80;;;;;;6132254;23;20152;-81
2023/02/13 12:23:59;;;;;;;0.98;0.52;;;18.80;44.80;;;;;;6158393;23;20215;-81
2023/02/13 12:26:35;;;;;;;2.22;0.45;;;18.80;45.00;;;;;;6138701;23;20167;-81
2023/02/13 12:29:24;;;;;;;1.05;0.50;;;18.70;45.00;;;;;;6132211;23;20607;-81
2023/02/13 12:32:09;;;;;;;2.78;0.65;;;18.80;45.00;;;;;;6132088;23;20230;-82
2023/02/13 12:35:00;;;;;;;1.02;0.60;;;18.70;45.10;;;;;;6112831;23;20480;-81
2023/02/13 12:37:55;;;;;;;2.08;0.43;;;18.80;44.80;;;;;;6135388;23;20135;-81
2023/02/13 12:40:43;;;;;;;0.93;0.50;;;18.80;44.70;;;;;;6131825;23;20190;-81
2023/02/13 12:43:33;;;;;;;1.95;0.60;;;18.80;44.70;;;;;;6157968;23;20171;-82
2023/02/13 12:46:12;;;;;;;1.20;0.50;;;18.80;44.80;;;;;;6108004;23;20162;-82
2023/02/13 12:49:03;;;;;;;1.60;0.55;;;18.80;44.80;;;;;;6133394;23;20167;-81
2023/02/13 12:51:44;;;;;;;2.35;0.40;;;18.80;44.60;;;;;;6131804;23;20571;-81
2023/02/13 12:54:44;;;;;;;1.38;0.50;;;18.80;44.60;;;;;;6158173;23;20159;-80
2023/02/13 12:57:24;;;;;;;1.85;0.50;;;18.80;44.70;;;;;;6139382;23;20171;-82
2023/02/13 13:00:11;;;;;;;2.13;0.40;;;18.80;44.70;;;;;;6131573;23;20546;-81
2023/02/13 13:02:45;;;;;;;0.63;0.50;;;18.80;44.60;;;;;;6109611;23;20280;-80
2023/02/13 13:05:28;;;;;;;1.23;0.60;;;18.80;44.60;;;;;;6107159;23;20142;-81
2023/02/13 13:08:31;;;;;;;0.85;0.50;;;18.80;44.50;;;;;;6133401;23;20194;-81
2023/02/13 13:11:12;;;;;;;0.50;0.50;;;18.80;44.60;;;;;;6070887;23;20167;-81
2023/02/13 13:14:14;;;;;;;0.60;0.52;;;18.80;45.10;;;;;;6048702;23;20599;-80
2023/02/13 13:17:14;;;;;;;1.67;0.40;;;18.80;44.40;;;;;;6072888;23;20199;-81
2023/02/13 13:20:03;;;;;;;0.93;0.40;;;18.70;44.40;;;;;;6071943;23;20161;-81
2023/02/13 13:22:51;;;;;;;2.60;0.40;;;18.80;44.50;;;;;;6095959;23;20521;-82
2023/02/13 13:25:31;;;;;;;2.63;0.60;;;18.70;44.40;;;;;;6095954;23;20148;-81
2023/02/13 13:28:06;;;;;;;0.68;0.52;;;18.80;44.50;;;;;;6071918;23;20539;-81
2023/02/13 13:30:32;;;;;;;0.95;0.47;;;18.70;44.40;;;;;;6071143;23;20594;-81
2023/02/13 13:33:07;;;;;;;1.40;0.60;;;18.80;44.40;;;;;;6067006;23;20156;-81
2023/02/13 13:35:33;;;;;;;0.80;0.52;;;18.80;44.30;;;;;;6086828;23;20212;-81
2023/02/13 13:38:05;;;;;;;0.70;0.60;;;18.80;44.20;;;;;;6096117;23;20665;-81
2023/02/13 13:40:41;;;;;;;4.25;0.70;;;18.80;44.20;;;;;;6096124;23;20192;-81
2023/02/13 13:43:25;;;;;;;1.38;0.50;;;18.80;44.10;;;;;;6049312;23;20161;-81
2023/02/13 13:46:14;;;;;;;2.75;0.50;;;18.80;44.10;;;;;;6095529;23;20148;-81
2023/02/13 13:48:55;;;;;;;0.88;0.50;;;18.80;44.10;;;;;;6095626;23;20156;-81
2023/02/13 13:51:20;;;;;;;1.15;0.60;;;18.80;44.10;;;;;;6095161;23;20137;-82
2023/02/13 13:54:21;;;;;;;2.72;0.63;;;18.90;43.90;;;;;;6094851;23;20192;-81
2023/02/13 13:57:07;;;;;;;0.88;0.60;;;18.90;43.90;;;;;;6070883;23;20583;-81